Statia Express — V7TT3 — position and weather

sailwx.info

Track history (hours):
 
Tides and Currents Weather Stations Pressure Air Temp Water Temp Dewpoint Dewpoint Depression Visibility Wind Speed Wind Dir Waves Ship Positions

Statia Express

Last reported at 2017-Apr-26 23:05 UTC. Time now 2017-Apr-28 13:58 UTC.
Position N 17°48' W 063°04'.

Length 28 m; draft 4.1 m.

Type: Tug. MMSI: 538003879.

Date/timePositionNaut miles runAvg speedWind from/ knotsBaromVisibWave heightAir tempDewpointWater temp
2017-Apr-26 23:05N 17°48' W 063°04'1 9.3
2017-Apr-26 23:00N 17°49' W 063°04'5 8.9
2017-Apr-26 22:29N 17°53' W 063°05'5 9.1
2017-Apr-26 21:57N 17°58' W 063°04'3 0.3
2017-Apr-26 13:46N 18°00' W 063°03'0 0.2
2017-Apr-26 11:28N 18°00' W 063°03'4 8.5
2017-Apr-26 11:00N 17°57' W 063°04'5 9.4
2017-Apr-26 10:30N 17°52' W 063°04'5 9.5
2017-Apr-26 10:00N 17°47' W 063°04'  
Track history (hours):
 
Tides and Currents Weather Stations Pressure Air Temp Water Temp Dewpoint Dewpoint Depression Visibility Wind Speed Wind Dir Waves Ship Positions

Statia Express

Last reported at 2017-Apr-26 23:05 UTC. Time now 2017-Apr-28 13:58 UTC.
Position N 17°48' W 063°04'.

Length 28 m; draft 4.1 m.

Type: Tug. MMSI: 538003879.

Date/timePositionNaut miles runAvg speedWind from/ knotsBaromVisibWave heightAir tempDewpointWater temp
2017-Apr-26 23:05N 17°48' W 063°04'1 9.3
2017-Apr-26 23:00N 17°49' W 063°04'5 8.9
2017-Apr-26 22:29N 17°53' W 063°05'5 9.1
2017-Apr-26 21:57N 17°58' W 063°04'3 0.3
2017-Apr-26 13:46N 18°00' W 063°03'0 0.2
2017-Apr-26 11:28N 18°00' W 063°03'4 8.5
2017-Apr-26 11:00N 17°57' W 063°04'5 9.4
2017-Apr-26 10:30N 17°52' W 063°04'5 9.5
2017-Apr-26 10:00N 17°47' W 063°04'  

Dump ship's entire track history